Terminal Aerodrome Forecast
Issued by NWS

Home | Current Version | Previous Version | Text Only | Print | Product List | Glossary On
Versions: 1 2 3 4 5 6 7 8 9 10 11 12 13 14 15 16 17 18 19
000
FTUS45 KTFX 282300
TAFBZN
TAF
KBZN 282320Z 2900/2924 22011KT P6SM BKN080
     FM290300 22008KT P6SM BKN100
     FM291200 27015G20KT P6SM VCSH BKN080
     FM291800 30015KT P6SM VCSH SCT020 BKN040
     FM292000 30015KT 4SM -SN BR BKN020=

USA.gov is the U.S. government's official web portal to all federal, state and local government web resources and services.